Terminal Aerodrome Forecast
Issued by NWS Sioux Falls, SD

Home | Current Version | Previous Version | Graphics & Text | Print | Product List | Glossary Off
Versions: 1 2 3 4 5 6 7 8 9 10 11 12 13 14 15 16 17 18 19 20 21 22 23 24 25 26 27 28 29 30

865
FTUS43 KFSD 132327 CCA
TAFSUX
TAF COR
KSUX 132327Z 1400/1424 34015G25KT P6SM OVC035
     FM140300 35010G18KT P6SM SCT030 OVC035
     FM140600 35008KT P6SM VCSH BKN020 OVC030
     FM141000 27005KT P6SM SCT020 OVC035
     FM142200 30010KT P6SM VCSH OVC020=

USA.gov is the U.S. government's official web portal to all federal, state and local government web resources and services.